メインページ
METAR-TAF:

METAR-TAF

空港 :

ロサンゼルス, カリフォルニア州, アメリカ合衆国

ロサンゼルス国際空港

緯度: 33-56-17N, 経度: 118-23-20W, 海抜: 38m

現時点の気象観測

当レポートは1時間14分前の20:53(UTC)に作成
西の風 29kt
気温 14°C
湿度 36%
気圧 1013 hPa
視程: 16.1km
高度1000ftの雲はほとんどない
高度5500ftの雲は散在している

METAR: KLAX 192053Z 26029KT 10SM FEW010 SCT055 14/M01 A2991 RMK AO2 PK WND 26033/2053 SLP126 T01441006 58017

時間: 14:07 (22:07 UTC)

予報

当レポートは1時間18分前の20:49(UTC)に作成
予報は19日の 21時(UTC)から 20日の 24時(UTC)まで有効
西の風 22kt、最大32ktの突風を伴う
視程: 10km
高度1200ftの雲はほとんどない
高度5000ftの雲は散在している
20日の 0300時(UTC)から
北西の風 14kt
視程: 10km
晴天
20日の 0700時(UTC)から
北/北西の風 8kt
視程: 10km
晴天
20日の 1200時(UTC)から
変向風 3kt
視程: 10km
晴天
20日の 2000時(UTC)から
西の風 12kt
視程: 10km
晴天

TAF: KLAX 192049Z 1921/2024 26022G32KT P6SM FEW012 SCT050 FM200300 31014KT P6SM SKC FM200700 34008KT P6SM SKC FM201200 VRB03KT P6SM SKC FM202000 26012KT P6SM SKC

4,000以上の空港の気象観測と天気予報(METAR報とTAF報)

利用可能な観測所は地図上に黄色い丸と赤い丸で示す。

丸の上にカーソルを重ねると観測所名を参照できる。

次にクリックすると気象観測と天気予報を参照できる。

マップの切り替え:黒色「×」印の緑ボタンをクリックして拡大、「-」印の緑ボタンをクリックして縮小、緑色の三角印をクリックして隣りの地図に切り替え


METAR-TAF: